Terminal Aerodrome Forecast
Issued by NWS

Home | Current Version | Previous Version | Graphics & Text | Print | Product List | Glossary On
Versions: 1 2 3 4 5 6 7 8 9 10 11 12 13 14
632
FTUS43 KFGF 222330
TAFBJI
TAF
KBJI 222330Z 2300/2324 28013G21KT P6SM FEW200
     FM230200 26009KT P6SM FEW200
     FM231100 29013KT P6SM BKN015
     FM231500 29015G21KT P6SM OVC015
     FM232300 31014KT P6SM BKN035=

USA.gov is the U.S. government's official web portal to all federal, state and local government web resources and services.